sensor_id;sensor_type;location;lat;lon;timestamp;temperature;humidity
59469;DHT22;45277;52.768;18.262;2022-09-24T00:00:35;9.60;99.90
59469;DHT22;45277;52.768;18.262;2022-09-24T00:02:27;9.70;99.90
59469;DHT22;45277;52.768;18.262;2022-09-24T00:04:05;9.70;99.90
59469;DHT22;45277;52.768;18.262;2022-09-24T00:05:40;9.70;99.90
59469;DHT22;45277;52.768;18.262;2022-09-24T00:07:11;9.70;99.90
59469;DHT22;45277;52.768;18.262;2022-09-24T00:08:42;9.70;99.90
59469;DHT22;45277;52.768;18.262;2022-09-24T00:10:14;9.70;99.90
59469;DHT22;45277;52.768;18.262;2022-09-24T00:11:45;9.60;99.90
59469;DHT22;45277;52.768;18.262;2022-09-24T00:13:17;9.60;99.90
59469;DHT22;45277;52.768;18.262;2022-09-24T00:14:49;9.50;99.90
59469;DHT22;45277;52.768;18.262;2022-09-24T00:16:21;9.50;99.90
59469;DHT22;45277;52.768;18.262;2022-09-24T00:17:53;9.50;99.90
59469;DHT22;45277;52.768;18.262;2022-09-24T00:19:24;9.50;99.90
59469;DHT22;45277;52.768;18.262;2022-09-24T00:20:56;9.50;99.90
59469;DHT22;45277;52.768;18.262;2022-09-24T00:22:27;9.50;99.90
59469;DHT22;45277;52.768;18.262;2022-09-24T00:24:12;9.40;99.90
59469;DHT22;45277;52.768;18.262;2022-09-24T00:26:03;9.40;99.90
59469;DHT22;45277;52.768;18.262;2022-09-24T00:27:53;9.40;99.90
59469;DHT22;45277;52.768;18.262;2022-09-24T00:29:25;9.40;99.90
59469;DHT22;45277;52.768;18.262;2022-09-24T00:30:57;9.40;99.90
59469;DHT22;45277;52.768;18.262;2022-09-24T00:32:29;9.40;99.90
59469;DHT22;45277;52.768;18.262;2022-09-24T00:34:00;9.30;99.90
59469;DHT22;45277;52.768;18.262;2022-09-24T00:35:33;9.40;99.90
59469;DHT22;45277;52.768;18.262;2022-09-24T00:37:04;9.30;99.90
59469;DHT22;45277;52.768;18.262;2022-09-24T00:38:35;9.30;99.90
59469;DHT22;45277;52.768;18.262;2022-09-24T00:40:07;9.30;99.90
59469;DHT22;45277;52.768;18.262;2022-09-24T00:41:40;9.20;99.90
59469;DHT22;45277;52.768;18.262;2022-09-24T00:43:25;9.20;99.90
59469;DHT22;45277;52.768;18.262;2022-09-24T00:44:56;9.10;99.90
59469;DHT22;45277;52.768;18.262;2022-09-24T00:46:40;9.20;99.90
59469;DHT22;45277;52.768;18.262;2022-09-24T00:48:13;9.20;99.90
59469;DHT22;45277;52.768;18.262;2022-09-24T00:49:46;9.10;99.90
59469;DHT22;45277;52.768;18.262;2022-09-24T00:51:20;9.10;99.90
59469;DHT22;45277;52.768;18.262;2022-09-24T00:53:00;9.10;99.90
59469;DHT22;45277;52.768;18.262;2022-09-24T00:54:33;9.10;99.90
59469;DHT22;45277;52.768;18.262;2022-09-24T00:56:07;9.10;99.90
59469;DHT22;45277;52.768;18.262;2022-09-24T00:57:39;9.20;99.90
59469;DHT22;45277;52.768;18.262;2022-09-24T00:59:13;9.20;99.90
59469;DHT22;45277;52.768;18.262;2022-09-24T01:00:49;9.20;99.90
59469;DHT22;45277;52.768;18.262;2022-09-24T01:02:21;9.20;99.90
59469;DHT22;45277;52.768;18.262;2022-09-24T01:03:55;9.20;99.90
59469;DHT22;45277;52.768;18.262;2022-09-24T01:05:28;9.10;99.90
59469;DHT22;45277;52.768;18.262;2022-09-24T01:06:59;9.10;99.90
59469;DHT22;45277;52.768;18.262;2022-09-24T01:08:31;9.10;99.90
59469;DHT22;45277;52.768;18.262;2022-09-24T01:10:03;9.10;99.90
59469;DHT22;45277;52.768;18.262;2022-09-24T01:14:27;9.00;99.90
59469;DHT22;45277;52.768;18.262;2022-09-24T01:16:09;9.00;99.90
59469;DHT22;45277;52.768;18.262;2022-09-24T01:18:04;9.00;99.90
59469;DHT22;45277;52.768;18.262;2022-09-24T01:21:53;9.00;99.90
59469;DHT22;45277;52.768;18.262;2022-09-24T01:27:17;8.90;99.90
59469;DHT22;45277;52.768;18.262;2022-09-24T01:28:59;8.90;99.90
59469;DHT22;45277;52.768;18.262;2022-09-24T01:30:37;8.90;99.90
59469;DHT22;45277;52.768;18.262;2022-09-24T01:32:24;8.90;99.90
59469;DHT22;45277;52.768;18.262;2022-09-24T01:34:02;9.00;99.90
59469;DHT22;45277;52.768;18.262;2022-09-24T01:35:42;9.00;99.90
59469;DHT22;45277;52.768;18.262;2022-09-24T01:37:17;8.90;99.90
59469;DHT22;45277;52.768;18.262;2022-09-24T01:38:51;8.90;99.90
59469;DHT22;45277;52.768;18.262;2022-09-24T01:40:26;9.00;99.90
59469;DHT22;45277;52.768;18.262;2022-09-24T01:41:58;9.00;99.90
59469;DHT22;45277;52.768;18.262;2022-09-24T01:43:30;8.90;99.90
59469;DHT22;45277;52.768;18.262;2022-09-24T01:45:03;8.90;99.90
59469;DHT22;45277;52.768;18.262;2022-09-24T01:46:39;8.90;99.90
59469;DHT22;45277;52.768;18.262;2022-09-24T01:48:10;8.90;99.90
59469;DHT22;45277;52.768;18.262;2022-09-24T01:49:42;8.90;99.90
59469;DHT22;45277;52.768;18.262;2022-09-24T01:51:18;8.90;99.90
59469;DHT22;45277;52.768;18.262;2022-09-24T01:53:17;8.90;99.90
59469;DHT22;45277;52.768;18.262;2022-09-24T01:54:51;8.90;99.90
59469;DHT22;45277;52.768;18.262;2022-09-24T01:58:04;8.90;99.90
59469;DHT22;45277;52.768;18.262;2022-09-24T02:00:14;8.90;99.90
59469;DHT22;45277;52.768;18.262;2022-09-24T02:02:00;8.90;99.90
59469;DHT22;45277;52.768;18.262;2022-09-24T02:03:40;8.90;99.90
59469;DHT22;45277;52.768;18.262;2022-09-24T02:06:59;8.90;99.90
59469;DHT22;45277;52.768;18.262;2022-09-24T02:08:37;8.80;99.90
59469;DHT22;45277;52.768;18.262;2022-09-24T02:10:17;8.80;99.90
59469;DHT22;45277;52.768;18.262;2022-09-24T02:11:50;8.80;99.90
59469;DHT22;45277;52.768;18.262;2022-09-24T02:13:26;8.80;99.90
59469;DHT22;45277;52.768;18.262;2022-09-24T02:15:18;8.80;99.90
59469;DHT22;45277;52.768;18.262;2022-09-24T02:16:51;8.80;99.90
59469;DHT22;45277;52.768;18.262;2022-09-24T02:18:27;8.80;99.90
59469;DHT22;45277;52.768;18.262;2022-09-24T02:20:02;8.80;99.90
59469;DHT22;45277;52.768;18.262;2022-09-24T02:21:36;8.80;99.90
59469;DHT22;45277;52.768;18.262;2022-09-24T02:23:09;8.80;99.90
59469;DHT22;45277;52.768;18.262;2022-09-24T02:24:49;8.80;99.90
59469;DHT22;45277;52.768;18.262;2022-09-24T02:26:21;8.80;99.90
59469;DHT22;45277;52.768;18.262;2022-09-24T02:27:53;8.80;99.90
59469;DHT22;45277;52.768;18.262;2022-09-24T02:29:24;8.80;99.90
59469;DHT22;45277;52.768;18.262;2022-09-24T02:31:16;8.80;99.90
59469;DHT22;45277;52.768;18.262;2022-09-24T02:32:49;8.80;99.90
59469;DHT22;45277;52.768;18.262;2022-09-24T02:34:29;8.80;99.90
59469;DHT22;45277;52.768;18.262;2022-09-24T02:36:01;8.80;99.90
59469;DHT22;45277;52.768;18.262;2022-09-24T02:37:35;8.80;99.90
59469;DHT22;45277;52.768;18.262;2022-09-24T02:39:10;8.80;99.90
59469;DHT22;45277;52.768;18.262;2022-09-24T02:40:41;8.80;99.90
59469;DHT22;45277;52.768;18.262;2022-09-24T02:42:15;8.80;99.90
59469;DHT22;45277;52.768;18.262;2022-09-24T02:43:48;8.80;99.90
59469;DHT22;45277;52.768;18.262;2022-09-24T02:45:19;8.80;99.90
59469;DHT22;45277;52.768;18.262;2022-09-24T02:46:51;8.80;99.90
59469;DHT22;45277;52.768;18.262;2022-09-24T02:48:22;8.80;99.90
59469;DHT22;45277;52.768;18.262;2022-09-24T02:49:54;8.80;99.90
59469;DHT22;45277;52.768;18.262;2022-09-24T02:51:26;8.80;99.90
59469;DHT22;45277;52.768;18.262;2022-09-24T02:52:57;8.80;99.90
59469;DHT22;45277;52.768;18.262;2022-09-24T02:54:29;8.80;99.90
59469;DHT22;45277;52.768;18.262;2022-09-24T02:56:01;8.80;99.90
59469;DHT22;45277;52.768;18.262;2022-09-24T02:57:33;8.80;99.90
59469;DHT22;45277;52.768;18.262;2022-09-24T02:59:05;8.80;99.90
59469;DHT22;45277;52.768;18.262;2022-09-24T03:00:37;8.80;99.90
59469;DHT22;45277;52.768;18.262;2022-09-24T03:02:09;8.80;99.90
59469;DHT22;45277;52.768;18.262;2022-09-24T03:03:40;8.80;99.90
59469;DHT22;45277;52.768;18.262;2022-09-24T03:05:12;8.80;99.90
59469;DHT22;45277;52.768;18.262;2022-09-24T03:06:48;8.80;99.90
59469;DHT22;45277;52.768;18.262;2022-09-24T03:08:23;8.80;99.90
59469;DHT22;45277;52.768;18.262;2022-09-24T03:09:54;8.80;99.90
59469;DHT22;45277;52.768;18.262;2022-09-24T03:11:26;8.80;99.90
59469;DHT22;45277;52.768;18.262;2022-09-24T03:12:57;8.80;99.90
59469;DHT22;45277;52.768;18.262;2022-09-24T03:14:28;8.80;99.90
59469;DHT22;45277;52.768;18.262;2022-09-24T03:16:00;8.80;99.90
59469;DHT22;45277;52.768;18.262;2022-09-24T03:17:31;8.80;99.90
59469;DHT22;45277;52.768;18.262;2022-09-24T03:19:03;8.80;99.90
59469;DHT22;45277;52.768;18.262;2022-09-24T03:20:35;8.80;99.90
59469;DHT22;45277;52.768;18.262;2022-09-24T03:22:07;8.70;99.90
59469;DHT22;45277;52.768;18.262;2022-09-24T03:23:39;8.70;99.90
59469;DHT22;45277;52.768;18.262;2022-09-24T03:25:10;8.70;99.90
59469;DHT22;45277;52.768;18.262;2022-09-24T03:26:42;8.80;99.90
59469;DHT22;45277;52.768;18.262;2022-09-24T03:28:13;8.70;99.90
59469;DHT22;45277;52.768;18.262;2022-09-24T03:29:44;8.80;99.90
59469;DHT22;45277;52.768;18.262;2022-09-24T03:31:34;8.70;99.90
59469;DHT22;45277;52.768;18.262;2022-09-24T03:33:06;8.80;99.90
59469;DHT22;45277;52.768;18.262;2022-09-24T03:34:37;8.70;99.90
59469;DHT22;45277;52.768;18.262;2022-09-24T03:36:12;8.70;99.90
59469;DHT22;45277;52.768;18.262;2022-09-24T03:37:43;8.70;99.90
59469;DHT22;45277;52.768;18.262;2022-09-24T03:39:15;8.70;99.90
59469;DHT22;45277;52.768;18.262;2022-09-24T03:40:47;8.70;99.90
59469;DHT22;45277;52.768;18.262;2022-09-24T03:42:18;8.70;99.90
59469;DHT22;45277;52.768;18.262;2022-09-24T03:43:49;8.70;99.90
59469;DHT22;45277;52.768;18.262;2022-09-24T03:45:20;8.70;99.90
59469;DHT22;45277;52.768;18.262;2022-09-24T03:46:52;8.70;99.90
59469;DHT22;45277;52.768;18.262;2022-09-24T03:48:24;8.70;99.90
59469;DHT22;45277;52.768;18.262;2022-09-24T03:49:56;8.70;99.90
59469;DHT22;45277;52.768;18.262;2022-09-24T03:51:27;8.70;99.90
59469;DHT22;45277;52.768;18.262;2022-09-24T03:52:59;8.70;99.90
59469;DHT22;45277;52.768;18.262;2022-09-24T03:54:30;8.70;99.90
59469;DHT22;45277;52.768;18.262;2022-09-24T03:56:02;8.70;99.90
59469;DHT22;45277;52.768;18.262;2022-09-24T03:57:35;8.70;99.90
59469;DHT22;45277;52.768;18.262;2022-09-24T03:59:09;8.70;99.90
59469;DHT22;45277;52.768;18.262;2022-09-24T04:00:41;8.70;99.90
59469;DHT22;45277;52.768;18.262;2022-09-24T04:02:12;8.70;99.90
59469;DHT22;45277;52.768;18.262;2022-09-24T04:03:43;8.70;99.90
59469;DHT22;45277;52.768;18.262;2022-09-24T04:05:15;8.70;99.90
59469;DHT22;45277;52.768;18.262;2022-09-24T04:06:46;8.70;99.90
59469;DHT22;45277;52.768;18.262;2022-09-24T04:08:20;8.70;99.90
59469;DHT22;45277;52.768;18.262;2022-09-24T04:09:51;8.70;99.90
59469;DHT22;45277;52.768;18.262;2022-09-24T04:11:23;8.70;99.90
59469;DHT22;45277;52.768;18.262;2022-09-24T04:12:55;8.70;99.90
59469;DHT22;45277;52.768;18.262;2022-09-24T04:14:26;8.70;99.90
59469;DHT22;45277;52.768;18.262;2022-09-24T04:16:02;8.70;99.90
59469;DHT22;45277;52.768;18.262;2022-09-24T04:17:34;8.70;99.90
59469;DHT22;45277;52.768;18.262;2022-09-24T04:19:05;8.70;99.90
59469;DHT22;45277;52.768;18.262;2022-09-24T04:20:38;8.60;99.90
59469;DHT22;45277;52.768;18.262;2022-09-24T04:22:09;8.60;99.90
59469;DHT22;45277;52.768;18.262;2022-09-24T04:23:41;8.60;99.90
59469;DHT22;45277;52.768;18.262;2022-09-24T04:25:12;8.60;99.90
59469;DHT22;45277;52.768;18.262;2022-09-24T04:26:44;8.60;99.90
59469;DHT22;45277;52.768;18.262;2022-09-24T04:28:15;8.60;99.90
59469;DHT22;45277;52.768;18.262;2022-09-24T04:29:46;8.60;99.90
59469;DHT22;45277;52.768;18.262;2022-09-24T04:31:18;8.60;99.90
59469;DHT22;45277;52.768;18.262;2022-09-24T04:32:49;8.60;99.90
59469;DHT22;45277;52.768;18.262;2022-09-24T04:34:21;8.60;99.90
59469;DHT22;45277;52.768;18.262;2022-09-24T04:35:53;8.60;99.90
59469;DHT22;45277;52.768;18.262;2022-09-24T04:37:24;8.60;99.90
59469;DHT22;45277;52.768;18.262;2022-09-24T04:38:55;8.70;99.90
59469;DHT22;45277;52.768;18.262;2022-09-24T04:40:27;8.70;99.90
59469;DHT22;45277;52.768;18.262;2022-09-24T04:41:59;8.70;99.90
59469;DHT22;45277;52.768;18.262;2022-09-24T04:43:31;8.70;99.90
59469;DHT22;45277;52.768;18.262;2022-09-24T04:45:06;8.70;99.90
59469;DHT22;45277;52.768;18.262;2022-09-24T04:46:37;8.70;99.90
59469;DHT22;45277;52.768;18.262;2022-09-24T04:48:11;8.70;99.90
59469;DHT22;45277;52.768;18.262;2022-09-24T04:49:43;8.70;99.90
59469;DHT22;45277;52.768;18.262;2022-09-24T04:51:16;8.70;99.90
59469;DHT22;45277;52.768;18.262;2022-09-24T04:52:49;8.70;99.90
59469;DHT22;45277;52.768;18.262;2022-09-24T04:54:21;8.70;99.90
59469;DHT22;45277;52.768;18.262;2022-09-24T04:55:52;8.70;99.90
59469;DHT22;45277;52.768;18.262;2022-09-24T04:57:23;8.80;99.90
59469;DHT22;45277;52.768;18.262;2022-09-24T04:58:54;8.80;99.90
59469;DHT22;45277;52.768;18.262;2022-09-24T05:00:26;8.80;99.90
59469;DHT22;45277;52.768;18.262;2022-09-24T05:01:57;8.80;99.90
59469;DHT22;45277;52.768;18.262;2022-09-24T05:03:29;8.80;99.90
59469;DHT22;45277;52.768;18.262;2022-09-24T05:05:00;8.80;99.90
59469;DHT22;45277;52.768;18.262;2022-09-24T05:06:33;8.90;99.90
59469;DHT22;45277;52.768;18.262;2022-09-24T05:08:06;8.90;99.90
59469;DHT22;45277;52.768;18.262;2022-09-24T05:09:37;8.90;99.90
59469;DHT22;45277;52.768;18.262;2022-09-24T05:11:08;8.90;99.90
59469;DHT22;45277;52.768;18.262;2022-09-24T05:12:40;8.90;99.90
59469;DHT22;45277;52.768;18.262;2022-09-24T05:14:11;8.90;99.90
59469;DHT22;45277;52.768;18.262;2022-09-24T05:15:42;9.00;99.90
59469;DHT22;45277;52.768;18.262;2022-09-24T05:17:14;9.00;99.90
59469;DHT22;45277;52.768;18.262;2022-09-24T05:18:45;9.10;99.90
59469;DHT22;45277;52.768;18.262;2022-09-24T05:20:16;9.00;99.90
59469;DHT22;45277;52.768;18.262;2022-09-24T05:21:48;9.10;99.90
59469;DHT22;45277;52.768;18.262;2022-09-24T05:23:20;9.10;99.90
59469;DHT22;45277;52.768;18.262;2022-09-24T05:24:52;9.20;99.90
59469;DHT22;45277;52.768;18.262;2022-09-24T05:26:24;9.20;99.90
59469;DHT22;45277;52.768;18.262;2022-09-24T05:28:14;9.20;99.90
59469;DHT22;45277;52.768;18.262;2022-09-24T05:29:45;9.20;99.90
59469;DHT22;45277;52.768;18.262;2022-09-24T05:31:16;9.30;99.90
59469;DHT22;45277;52.768;18.262;2022-09-24T05:32:48;9.40;99.90
59469;DHT22;45277;52.768;18.262;2022-09-24T05:34:21;9.40;99.90
59469;DHT22;45277;52.768;18.262;2022-09-24T05:35:56;9.50;99.90
59469;DHT22;45277;52.768;18.262;2022-09-24T05:37:28;9.50;99.90
59469;DHT22;45277;52.768;18.262;2022-09-24T05:38:59;9.60;99.90
59469;DHT22;45277;52.768;18.262;2022-09-24T05:40:30;9.60;99.90
59469;DHT22;45277;52.768;18.262;2022-09-24T05:42:20;9.70;99.90
59469;DHT22;45277;52.768;18.262;2022-09-24T05:43:52;9.70;99.90
59469;DHT22;45277;52.768;18.262;2022-09-24T05:45:23;9.80;99.90
59469;DHT22;45277;52.768;18.262;2022-09-24T05:46:54;9.90;99.90
59469;DHT22;45277;52.768;18.262;2022-09-24T05:48:25;10.00;99.90
59469;DHT22;45277;52.768;18.262;2022-09-24T05:49:57;10.00;99.90
59469;DHT22;45277;52.768;18.262;2022-09-24T05:51:28;10.10;99.90
59469;DHT22;45277;52.768;18.262;2022-09-24T05:53:03;10.20;99.90
59469;DHT22;45277;52.768;18.262;2022-09-24T05:54:35;10.30;99.90
59469;DHT22;45277;52.768;18.262;2022-09-24T05:56:06;10.40;99.90
59469;DHT22;45277;52.768;18.262;2022-09-24T05:57:38;10.50;99.90
59469;DHT22;45277;52.768;18.262;2022-09-24T05:59:09;10.50;99.90
59469;DHT22;45277;52.768;18.262;2022-09-24T06:00:41;10.60;99.90
59469;DHT22;45277;52.768;18.262;2022-09-24T06:02:12;10.70;99.90
59469;DHT22;45277;52.768;18.262;2022-09-24T06:03:43;10.90;99.90
59469;DHT22;45277;52.768;18.262;2022-09-24T06:05:15;10.90;99.90
59469;DHT22;45277;52.768;18.262;2022-09-24T06:06:46;11.00;99.90
59469;DHT22;45277;52.768;18.262;2022-09-24T06:08:19;11.00;99.90
59469;DHT22;45277;52.768;18.262;2022-09-24T06:09:50;11.00;99.90
59469;DHT22;45277;52.768;18.262;2022-09-24T06:11:22;11.10;99.90
59469;DHT22;45277;52.768;18.262;2022-09-24T06:12:53;11.10;99.90
59469;DHT22;45277;52.768;18.262;2022-09-24T06:14:25;11.10;99.90
59469;DHT22;45277;52.768;18.262;2022-09-24T06:16:06;11.20;99.90
59469;DHT22;45277;52.768;18.262;2022-09-24T06:17:38;11.20;99.90
59469;DHT22;45277;52.768;18.262;2022-09-24T06:19:09;11.20;99.90
59469;DHT22;45277;52.768;18.262;2022-09-24T06:20:41;11.30;99.90
59469;DHT22;45277;52.768;18.262;2022-09-24T06:22:13;11.30;99.90
59469;DHT22;45277;52.768;18.262;2022-09-24T06:23:44;11.20;99.90
59469;DHT22;45277;52.768;18.262;2022-09-24T06:25:16;11.30;99.90
59469;DHT22;45277;52.768;18.262;2022-09-24T06:26:47;11.40;99.90
59469;DHT22;45277;52.768;18.262;2022-09-24T06:28:18;11.40;99.90
59469;DHT22;45277;52.768;18.262;2022-09-24T06:29:49;11.50;99.90
59469;DHT22;45277;52.768;18.262;2022-09-24T06:31:21;11.50;99.90
59469;DHT22;45277;52.768;18.262;2022-09-24T06:32:52;11.50;99.90
59469;DHT22;45277;52.768;18.262;2022-09-24T06:34:25;11.50;99.90
59469;DHT22;45277;52.768;18.262;2022-09-24T06:36:01;11.50;99.90
59469;DHT22;45277;52.768;18.262;2022-09-24T06:37:33;11.60;99.90
59469;DHT22;45277;52.768;18.262;2022-09-24T06:39:06;11.60;99.90
59469;DHT22;45277;52.768;18.262;2022-09-24T06:40:37;11.60;99.90
59469;DHT22;45277;52.768;18.262;2022-09-24T06:42:09;11.70;99.90
59469;DHT22;45277;52.768;18.262;2022-09-24T06:43:41;11.70;99.90
59469;DHT22;45277;52.768;18.262;2022-09-24T06:45:13;11.70;99.90
59469;DHT22;45277;52.768;18.262;2022-09-24T06:46:44;11.80;99.90
59469;DHT22;45277;52.768;18.262;2022-09-24T06:48:16;11.80;99.90
59469;DHT22;45277;52.768;18.262;2022-09-24T06:49:47;11.90;99.90
59469;DHT22;45277;52.768;18.262;2022-09-24T06:51:20;11.90;99.90
59469;DHT22;45277;52.768;18.262;2022-09-24T06:52:52;12.00;99.90
59469;DHT22;45277;52.768;18.262;2022-09-24T06:54:24;12.00;99.90
59469;DHT22;45277;52.768;18.262;2022-09-24T06:55:58;12.10;99.90
59469;DHT22;45277;52.768;18.262;2022-09-24T06:57:30;12.20;99.90
59469;DHT22;45277;52.768;18.262;2022-09-24T06:59:01;12.30;99.90
59469;DHT22;45277;52.768;18.262;2022-09-24T07:00:34;12.30;99.90
59469;DHT22;45277;52.768;18.262;2022-09-24T07:02:05;12.40;99.90
59469;DHT22;45277;52.768;18.262;2022-09-24T07:03:37;12.50;99.90
59469;DHT22;45277;52.768;18.262;2022-09-24T07:05:09;12.70;99.90
59469;DHT22;45277;52.768;18.262;2022-09-24T07:06:40;12.90;99.90
59469;DHT22;45277;52.768;18.262;2022-09-24T07:08:31;13.00;99.90
59469;DHT22;45277;52.768;18.262;2022-09-24T07:10:06;13.20;99.90
59469;DHT22;45277;52.768;18.262;2022-09-24T07:11:37;13.20;99.90
59469;DHT22;45277;52.768;18.262;2022-09-24T07:13:13;13.20;99.90
59469;DHT22;45277;52.768;18.262;2022-09-24T07:14:45;13.30;99.90
59469;DHT22;45277;52.768;18.262;2022-09-24T07:16:16;13.30;99.90
59469;DHT22;45277;52.768;18.262;2022-09-24T07:17:47;13.50;99.90
59469;DHT22;45277;52.768;18.262;2022-09-24T07:19:19;13.50;99.90
59469;DHT22;45277;52.768;18.262;2022-09-24T07:20:51;13.40;99.90
59469;DHT22;45277;52.768;18.262;2022-09-24T07:22:23;13.50;99.90
59469;DHT22;45277;52.768;18.262;2022-09-24T07:23:54;13.50;99.90
59469;DHT22;45277;52.768;18.262;2022-09-24T07:25:28;13.50;99.90
59469;DHT22;45277;52.768;18.262;2022-09-24T07:26:59;13.50;99.90
59469;DHT22;45277;52.768;18.262;2022-09-24T07:28:31;13.50;99.90
59469;DHT22;45277;52.768;18.262;2022-09-24T07:30:04;13.60;99.90
59469;DHT22;45277;52.768;18.262;2022-09-24T07:31:36;13.70;99.90
59469;DHT22;45277;52.768;18.262;2022-09-24T07:33:08;13.70;99.90
59469;DHT22;45277;52.768;18.262;2022-09-24T07:34:39;13.70;99.90
59469;DHT22;45277;52.768;18.262;2022-09-24T07:36:11;13.80;99.90
59469;DHT22;45277;52.768;18.262;2022-09-24T07:37:42;13.70;99.90
59469;DHT22;45277;52.768;18.262;2022-09-24T07:39:13;13.80;99.90
59469;DHT22;45277;52.768;18.262;2022-09-24T07:40:45;13.80;99.90
59469;DHT22;45277;52.768;18.262;2022-09-24T07:42:16;13.90;99.90
59469;DHT22;45277;52.768;18.262;2022-09-24T07:43:48;14.10;99.90
59469;DHT22;45277;52.768;18.262;2022-09-24T07:45:21;14.20;99.90
59469;DHT22;45277;52.768;18.262;2022-09-24T07:46:53;14.30;99.90
59469;DHT22;45277;52.768;18.262;2022-09-24T07:48:25;14.40;99.90
59469;DHT22;45277;52.768;18.262;2022-09-24T07:49:56;14.40;99.90
59469;DHT22;45277;52.768;18.262;2022-09-24T07:51:28;14.50;99.90
59469;DHT22;45277;52.768;18.262;2022-09-24T07:53:00;14.60;99.90
59469;DHT22;45277;52.768;18.262;2022-09-24T07:54:31;14.60;99.90
59469;DHT22;45277;52.768;18.262;2022-09-24T07:56:03;14.70;99.90
59469;DHT22;45277;52.768;18.262;2022-09-24T07:57:34;14.50;99.90
59469;DHT22;45277;52.768;18.262;2022-09-24T07:59:06;14.50;99.90
59469;DHT22;45277;52.768;18.262;2022-09-24T08:00:41;14.80;99.90
59469;DHT22;45277;52.768;18.262;2022-09-24T08:02:17;14.90;99.90
59469;DHT22;45277;52.768;18.262;2022-09-24T08:03:50;14.80;99.90
59469;DHT22;45277;52.768;18.262;2022-09-24T08:05:22;14.80;99.90
59469;DHT22;45277;52.768;18.262;2022-09-24T08:06:53;14.90;99.90
59469;DHT22;45277;52.768;18.262;2022-09-24T08:08:25;15.10;99.90
59469;DHT22;45277;52.768;18.262;2022-09-24T08:09:56;15.20;99.90
59469;DHT22;45277;52.768;18.262;2022-09-24T08:11:29;15.40;99.90
59469;DHT22;45277;52.768;18.262;2022-09-24T08:13:01;15.40;99.90
59469;DHT22;45277;52.768;18.262;2022-09-24T08:14:32;15.70;99.90
59469;DHT22;45277;52.768;18.262;2022-09-24T08:16:04;15.80;99.90
59469;DHT22;45277;52.768;18.262;2022-09-24T08:17:36;15.90;99.90
59469;DHT22;45277;52.768;18.262;2022-09-24T08:19:11;16.10;98.50
59469;DHT22;45277;52.768;18.262;2022-09-24T08:20:44;16.30;96.70
59469;DHT22;45277;52.768;18.262;2022-09-24T08:22:15;16.50;92.60
59469;DHT22;45277;52.768;18.262;2022-09-24T08:23:49;16.60;88.60
59469;DHT22;45277;52.768;18.262;2022-09-24T08:25:20;16.40;94.70
59469;DHT22;45277;52.768;18.262;2022-09-24T08:26:52;16.40;92.50
59469;DHT22;45277;52.768;18.262;2022-09-24T08:28:23;16.50;93.90
59469;DHT22;45277;52.768;18.262;2022-09-24T08:29:55;16.60;91.80
59469;DHT22;45277;52.768;18.262;2022-09-24T08:31:27;16.40;94.50
59469;DHT22;45277;52.768;18.262;2022-09-24T08:33:01;16.60;92.90
59469;DHT22;45277;52.768;18.262;2022-09-24T08:34:35;16.70;90.60
59469;DHT22;45277;52.768;18.262;2022-09-24T08:36:14;16.60;78.00
59469;DHT22;45277;52.768;18.262;2022-09-24T08:37:46;16.50;93.30
59469;DHT22;45277;52.768;18.262;2022-09-24T08:39:17;16.70;92.10
59469;DHT22;45277;52.768;18.262;2022-09-24T08:42:59;16.70;90.60
59469;DHT22;45277;52.768;18.262;2022-09-24T08:44:36;16.70;81.70
59469;DHT22;45277;52.768;18.262;2022-09-24T08:46:38;16.80;79.90
59469;DHT22;45277;52.768;18.262;2022-09-24T08:48:32;16.80;82.50
59469;DHT22;45277;52.768;18.262;2022-09-24T08:50:21;16.60;90.50
59469;DHT22;45277;52.768;18.262;2022-09-24T08:51:58;16.90;82.80
59469;DHT22;45277;52.768;18.262;2022-09-24T08:55:17;17.20;75.60
59469;DHT22;45277;52.768;18.262;2022-09-24T08:56:54;17.20;75.20
59469;DHT22;45277;52.768;18.262;2022-09-24T09:00:33;17.70;63.20
59469;DHT22;45277;52.768;18.262;2022-09-24T09:04:26;18.00;51.90
59469;DHT22;45277;52.768;18.262;2022-09-24T09:06:03;18.00;54.00
59469;DHT22;45277;52.768;18.262;2022-09-24T09:07:44;18.00;58.90
59469;DHT22;45277;52.768;18.262;2022-09-24T09:09:23;18.00;58.40
59469;DHT22;45277;52.768;18.262;2022-09-24T09:10:59;18.20;48.90
59469;DHT22;45277;52.768;18.262;2022-09-24T09:14:16;18.40;44.50
59469;DHT22;45277;52.768;18.262;2022-09-24T09:16:00;18.40;42.70
59469;DHT22;45277;52.768;18.262;2022-09-24T09:19:26;18.40;41.10
59469;DHT22;45277;52.768;18.262;2022-09-24T09:22:51;18.60;39.40
59469;DHT22;45277;52.768;18.262;2022-09-24T09:26:11;19.00;29.70
59469;DHT22;45277;52.768;18.262;2022-09-24T09:27:44;19.20;25.30
59469;DHT22;45277;52.768;18.262;2022-09-24T09:29:16;19.10;26.20
59469;DHT22;45277;52.768;18.262;2022-09-24T09:37:28;19.20;20.50
59469;DHT22;45277;52.768;18.262;2022-09-24T09:41:30;19.20;17.00
59469;DHT22;45277;52.768;18.262;2022-09-24T09:43:07;19.40;15.70
59469;DHT22;45277;52.768;18.262;2022-09-24T09:44:41;19.80;12.30
59469;DHT22;45277;52.768;18.262;2022-09-24T09:46:23;19.70;10.10
59469;DHT22;45277;52.768;18.262;2022-09-24T09:47:58;19.70;9.40
59469;DHT22;45277;52.768;18.262;2022-09-24T09:49:33;19.70;10.10
59469;DHT22;45277;52.768;18.262;2022-09-24T09:51:10;19.80;11.70
59469;DHT22;45277;52.768;18.262;2022-09-24T09:52:43;19.70;11.40
59469;DHT22;45277;52.768;18.262;2022-09-24T09:54:15;20.00;8.70
59469;DHT22;45277;52.768;18.262;2022-09-24T09:56:01;19.90;10.10
59469;DHT22;45277;52.768;18.262;2022-09-24T09:57:39;20.20;7.40
59469;DHT22;45277;52.768;18.262;2022-09-24T10:00:43;20.20;6.40
59469;DHT22;45277;52.768;18.262;2022-09-24T10:02:29;19.90;7.40
59469;DHT22;45277;52.768;18.262;2022-09-24T10:04:02;19.90;7.30
59469;DHT22;45277;52.768;18.262;2022-09-24T10:05:35;19.90;6.60
59469;DHT22;45277;52.768;18.262;2022-09-24T10:07:09;19.70;5.90
59469;DHT22;45277;52.768;18.262;2022-09-24T10:08:40;20.00;8.90
59469;DHT22;45277;52.768;18.262;2022-09-24T10:10:28;20.30;7.80
59469;DHT22;45277;52.768;18.262;2022-09-24T10:12:15;20.60;7.70
59469;DHT22;45277;52.768;18.262;2022-09-24T10:14:01;21.00;6.30
59469;DHT22;45277;52.768;18.262;2022-09-24T10:15:33;21.00;6.80
59469;DHT22;45277;52.768;18.262;2022-09-24T10:17:05;21.10;4.10
59469;DHT22;45277;52.768;18.262;2022-09-24T10:18:56;21.30;3.40
59469;DHT22;45277;52.768;18.262;2022-09-24T10:20:31;21.60;3.90
59469;DHT22;45277;52.768;18.262;2022-09-24T10:22:18;21.60;4.10
59469;DHT22;45277;52.768;18.262;2022-09-24T10:23:57;21.90;2.20
59469;DHT22;45277;52.768;18.262;2022-09-24T10:25:33;22.20;1.30
59469;DHT22;45277;52.768;18.262;2022-09-24T10:27:12;22.30;2.00
59469;DHT22;45277;52.768;18.262;2022-09-24T10:28:47;22.50;1.90